createdAt,value
2018-07-14T00:00:45.486Z,19.79
2018-07-14T00:01:46.047Z,19.81
2018-07-14T00:02:46.616Z,19.81
2018-07-14T00:03:47.169Z,19.85
2018-07-14T00:04:47.723Z,19.76
2018-07-14T00:05:48.277Z,19.67
2018-07-14T00:06:48.835Z,19.58
2018-07-14T00:07:49.393Z,19.54
2018-07-14T00:08:49.950Z,19.49
2018-07-14T00:09:50.494Z,19.55
2018-07-14T00:10:51.090Z,19.49
2018-07-14T00:11:51.607Z,19.48
2018-07-14T00:12:52.160Z,19.47
2018-07-14T00:13:52.714Z,19.39
2018-07-14T00:14:53.268Z,19.25
2018-07-14T00:15:53.834Z,19.37
2018-07-14T00:16:54.378Z,19.29
2018-07-14T00:17:54.932Z,19.27
2018-07-14T00:18:55.488Z,19.16
2018-07-14T00:19:56.035Z,19.18
2018-07-14T00:20:56.590Z,19.22
2018-07-14T00:21:57.142Z,19.09
2018-07-14T00:22:57.720Z,18.98
2018-07-14T00:23:58.253Z,19.00
2018-07-14T00:24:58.809Z,19.00
2018-07-14T00:25:59.363Z,19.00
2018-07-14T00:26:59.921Z,18.98
2018-07-14T00:28:00.477Z,18.93
2018-07-14T00:29:01.030Z,18.92
2018-07-14T00:30:01.590Z,18.81
2018-07-14T00:31:02.143Z,18.83
2018-07-14T00:32:02.697Z,18.85
2018-07-14T00:33:03.253Z,18.85
2018-07-14T00:34:03.812Z,18.68
2018-07-14T00:35:04.365Z,18.73
2018-07-14T00:36:04.918Z,18.68
2018-07-14T00:37:05.466Z,18.65
2018-07-14T00:38:06.024Z,18.62
2018-07-14T00:39:06.580Z,18.65
2018-07-14T00:40:07.133Z,18.69
2018-07-14T00:41:07.690Z,18.66
2018-07-14T00:42:08.244Z,18.75
2018-07-14T00:43:08.789Z,18.65
2018-07-14T00:44:09.350Z,18.66
2018-07-14T00:45:09.900Z,18.60
2018-07-14T00:46:10.454Z,18.50
2018-07-14T00:47:11.010Z,18.51
2018-07-14T00:48:11.564Z,18.50
2018-07-14T00:49:12.128Z,18.45
2018-07-14T00:50:12.684Z,18.38
2018-07-14T00:51:13.235Z,18.41
2018-07-14T00:52:13.790Z,18.41
2018-07-14T00:53:14.343Z,18.43
2018-07-14T00:54:14.893Z,18.44
2018-07-14T00:55:15.446Z,18.38
2018-07-14T00:56:16.001Z,18.41
2018-07-14T00:57:16.554Z,18.34
2018-07-14T00:58:17.110Z,18.32
2018-07-14T00:59:17.668Z,18.41
2018-07-14T01:00:18.222Z,18.29
2018-07-14T01:01:18.771Z,18.34
2018-07-14T01:02:19.324Z,18.25
2018-07-14T01:03:19.878Z,18.22
2018-07-14T01:04:20.429Z,18.20
2018-07-14T01:05:20.985Z,18.23
2018-07-14T01:06:21.541Z,18.26
2018-07-14T01:07:22.099Z,18.18
2018-07-14T01:08:22.652Z,18.12
2018-07-14T01:09:23.205Z,18.18
2018-07-14T01:10:23.764Z,18.12
2018-07-14T01:11:24.309Z,18.12
2018-07-14T01:12:24.864Z,18.14
2018-07-14T01:13:25.417Z,18.11
2018-07-14T01:14:25.970Z,18.14
2018-07-14T01:15:26.519Z,18.14
2018-07-14T01:16:27.066Z,18.14
2018-07-14T01:17:27.621Z,18.20
2018-07-14T01:18:28.175Z,18.26
2018-07-14T01:19:28.733Z,18.23
2018-07-14T01:20:29.285Z,18.26
2018-07-14T01:21:29.836Z,18.26
2018-07-14T01:22:30.392Z,18.32
2018-07-14T01:23:30.949Z,18.27
2018-07-14T01:24:31.498Z,18.35
2018-07-14T01:25:32.053Z,18.37
2018-07-14T01:26:32.609Z,18.38
2018-07-14T01:27:33.156Z,18.38
2018-07-14T01:28:33.713Z,18.35
2018-07-14T01:29:34.272Z,18.29
2018-07-14T01:30:34.826Z,18.26
2018-07-14T01:31:35.379Z,18.30
2018-07-14T01:32:35.936Z,18.19
2018-07-14T01:33:36.488Z,18.34
2018-07-14T01:34:37.034Z,18.29
2018-07-14T01:35:37.586Z,18.34
2018-07-14T01:36:38.139Z,18.38
2018-07-14T01:37:38.696Z,18.34
2018-07-14T01:38:39.247Z,18.29
2018-07-14T01:39:39.803Z,18.20
2018-07-14T01:40:40.369Z,18.22
2018-07-14T01:41:40.911Z,18.12
2018-07-14T01:42:41.461Z,18.19
2018-07-14T01:43:42.015Z,18.12
2018-07-14T01:44:42.566Z,17.95
2018-07-14T01:45:43.113Z,17.97
2018-07-14T01:46:43.667Z,17.97
2018-07-14T01:47:44.220Z,17.85
2018-07-14T01:48:44.774Z,17.87
2018-07-14T01:49:45.332Z,18.00
2018-07-14T01:50:45.887Z,18.08
2018-07-14T01:51:46.445Z,18.11
2018-07-14T01:52:46.988Z,18.11
2018-07-14T01:53:47.538Z,17.97
2018-07-14T01:54:48.092Z,17.93
2018-07-14T01:55:48.652Z,17.97
2018-07-14T01:56:49.194Z,17.87
2018-07-14T01:57:49.747Z,17.83
2018-07-14T01:58:50.301Z,17.79
2018-07-14T01:59:50.860Z,17.75
2018-07-14T02:00:51.411Z,17.72
2018-07-14T02:01:51.968Z,17.74
2018-07-14T02:02:52.515Z,17.55
2018-07-14T02:03:53.068Z,17.54
2018-07-14T02:04:53.621Z,17.59
2018-07-14T02:05:54.175Z,17.59
2018-07-14T02:06:54.730Z,17.67
2018-07-14T02:07:55.284Z,17.48
2018-07-14T02:08:55.838Z,17.63
2018-07-14T02:09:56.386Z,17.56
2018-07-14T02:10:56.942Z,17.55
2018-07-14T02:11:57.497Z,17.59
2018-07-14T02:12:58.048Z,17.64
2018-07-14T02:13:58.603Z,17.65
2018-07-14T02:14:59.156Z,17.63
2018-07-14T02:15:59.712Z,17.60
2018-07-14T02:17:00.262Z,17.54
2018-07-14T02:18:00.831Z,17.55
2018-07-14T02:19:01.375Z,17.49
2018-07-14T02:20:01.932Z,17.42
2018-07-14T02:21:02.489Z,17.42
2018-07-14T02:22:03.044Z,17.36
2018-07-14T02:23:03.596Z,17.29
2018-07-14T02:24:04.151Z,17.26
2018-07-14T02:25:04.707Z,17.24
2018-07-14T02:26:05.264Z,17.16
2018-07-14T02:27:05.822Z,17.14
2018-07-14T02:28:06.369Z,17.15
2018-07-14T02:29:06.917Z,17.24
2018-07-14T02:30:07.481Z,17.27
2018-07-14T02:31:08.026Z,17.23
2018-07-14T02:32:08.580Z,17.15
2018-07-14T02:33:09.136Z,17.14
2018-07-14T02:34:09.691Z,17.12
2018-07-14T02:35:10.247Z,17.15
2018-07-14T02:36:10.795Z,17.06
2018-07-14T02:37:11.400Z,17.01
2018-07-14T02:38:11.909Z,17.06
2018-07-14T02:39:12.457Z,17.04
2018-07-14T02:40:13.014Z,16.97
2018-07-14T02:41:13.565Z,17.00
2018-07-14T02:42:14.111Z,16.90
2018-07-14T02:43:14.667Z,17.00
2018-07-14T02:44:15.219Z,16.91
2018-07-14T02:45:15.773Z,16.90
2018-07-14T02:46:16.328Z,16.93
2018-07-14T02:47:16.882Z,16.87
2018-07-14T02:48:17.436Z,16.78
2018-07-14T02:49:17.989Z,16.76
2018-07-14T02:50:18.544Z,16.79
2018-07-14T02:51:19.096Z,16.76
2018-07-14T02:52:19.654Z,16.79
2018-07-14T02:53:20.211Z,16.87
2018-07-14T02:54:20.765Z,16.91
2018-07-14T02:55:21.309Z,16.93
2018-07-14T02:56:21.855Z,16.87
2018-07-14T02:57:22.402Z,16.83
2018-07-14T02:58:22.955Z,16.73
2018-07-14T02:59:23.513Z,16.76
2018-07-14T03:00:24.063Z,16.78
2018-07-14T03:01:24.616Z,16.83
2018-07-14T03:02:25.170Z,16.82
2018-07-14T03:03:25.725Z,16.81
2018-07-14T03:04:26.280Z,16.90
2018-07-14T03:05:26.839Z,16.86
2018-07-14T03:06:27.386Z,16.90
2018-07-14T03:07:27.945Z,16.81
2018-07-14T03:08:28.500Z,16.86
2018-07-14T03:09:29.052Z,16.87
2018-07-14T03:10:29.610Z,16.79
2018-07-14T03:11:30.166Z,16.83
2018-07-14T03:12:30.727Z,16.79
2018-07-14T03:13:31.272Z,16.81
2018-07-14T03:14:31.827Z,16.79
2018-07-14T03:15:32.381Z,16.66
2018-07-14T03:16:32.937Z,16.64
2018-07-14T03:17:33.491Z,16.64
2018-07-14T03:18:34.042Z,16.60
2018-07-14T03:19:34.653Z,16.56
2018-07-14T03:20:35.136Z,16.58
2018-07-14T03:21:35.694Z,16.56
2018-07-14T03:22:36.249Z,16.60
2018-07-14T03:23:36.804Z,16.63
2018-07-14T03:24:37.356Z,16.63
2018-07-14T03:25:37.910Z,16.57
2018-07-14T03:26:38.465Z,16.50
2018-07-14T03:27:39.024Z,16.51
2018-07-14T03:28:39.577Z,16.51
2018-07-14T03:29:40.135Z,16.39
2018-07-14T03:30:40.690Z,16.49
2018-07-14T03:31:41.244Z,16.38
2018-07-14T03:32:41.798Z,16.42
2018-07-14T03:33:42.350Z,16.39
2018-07-14T03:34:42.900Z,16.39
2018-07-14T03:35:43.459Z,16.39
2018-07-14T03:36:44.098Z,16.46
2018-07-14T03:37:44.568Z,16.41
2018-07-14T03:38:45.123Z,16.42
2018-07-14T03:39:45.679Z,16.42
2018-07-14T03:40:46.231Z,16.33
2018-07-14T03:41:46.789Z,16.31
2018-07-14T03:42:47.340Z,16.31
2018-07-14T03:43:47.895Z,16.35
2018-07-14T03:44:48.453Z,16.35
2018-07-14T03:45:49.010Z,16.31
2018-07-14T03:46:49.558Z,16.32
2018-07-14T03:47:50.108Z,16.32
2018-07-14T03:48:50.678Z,16.43
2018-07-14T03:49:51.222Z,16.42
2018-07-14T03:50:51.782Z,16.42
2018-07-14T03:51:52.337Z,16.39
2018-07-14T03:52:52.897Z,16.35
2018-07-14T03:53:53.454Z,16.42
2018-07-14T03:54:54.015Z,16.36
2018-07-14T03:55:54.573Z,16.25
2018-07-14T03:56:55.181Z,16.21
2018-07-14T03:57:55.677Z,16.38
2018-07-14T03:58:56.241Z,16.33
2018-07-14T03:59:56.800Z,16.27
2018-07-14T04:00:57.357Z,16.31
2018-07-14T04:01:57.911Z,16.31
2018-07-14T04:02:58.469Z,16.29
2018-07-14T04:03:59.026Z,16.36
2018-07-14T04:04:59.577Z,16.41
2018-07-14T04:06:00.133Z,16.38
2018-07-14T04:07:00.690Z,16.42
2018-07-14T04:08:01.246Z,16.42
2018-07-14T04:09:01.803Z,16.42
2018-07-14T04:10:02.361Z,16.42
2018-07-14T04:11:02.918Z,16.50
2018-07-14T04:12:03.470Z,16.45
2018-07-14T04:13:04.032Z,16.56
2018-07-14T04:14:04.592Z,16.58
2018-07-14T04:15:05.154Z,16.68
2018-07-14T04:16:05.703Z,16.68
2018-07-14T04:17:06.263Z,16.66
2018-07-14T04:18:06.832Z,16.64
2018-07-14T04:19:07.376Z,16.69
2018-07-14T04:20:07.929Z,16.66
2018-07-14T04:21:08.491Z,16.64
2018-07-14T04:22:09.045Z,16.69
2018-07-14T04:23:09.602Z,16.69
2018-07-14T04:24:10.158Z,16.71
2018-07-14T04:25:10.718Z,16.72
2018-07-14T04:26:11.268Z,16.78
2018-07-14T04:27:11.829Z,16.79
2018-07-14T04:28:12.389Z,16.90
2018-07-14T04:29:12.950Z,16.91
2018-07-14T04:30:13.515Z,16.89
2018-07-14T04:31:14.066Z,17.00
2018-07-14T04:32:14.628Z,17.04
2018-07-14T04:33:15.186Z,17.08
2018-07-14T04:34:15.745Z,17.05
2018-07-14T04:35:16.309Z,17.00
2018-07-14T04:36:16.865Z,17.01
2018-07-14T04:37:17.428Z,16.98
2018-07-14T04:38:17.989Z,17.04
2018-07-14T04:39:18.546Z,17.14
2018-07-14T04:40:19.107Z,17.24
2018-07-14T04:41:19.669Z,17.33
2018-07-14T04:42:20.297Z,17.39
2018-07-14T04:43:20.780Z,17.51
2018-07-14T04:44:21.338Z,17.49
2018-07-14T04:45:21.887Z,17.54
2018-07-14T04:46:22.443Z,17.59
2018-07-14T04:47:23.003Z,17.54
2018-07-14T04:48:23.565Z,17.55
2018-07-14T04:49:24.135Z,17.51
2018-07-14T04:50:24.687Z,17.56
2018-07-14T04:51:25.247Z,17.55
2018-07-14T04:52:25.810Z,17.55
2018-07-14T04:53:26.366Z,17.70
2018-07-14T04:54:26.924Z,17.79
2018-07-14T04:55:27.482Z,18.16
2018-07-14T04:56:28.038Z,18.44
2018-07-14T04:57:28.598Z,18.71
2018-07-14T04:58:29.152Z,18.78
2018-07-14T04:59:29.713Z,18.93
2018-07-14T05:00:30.274Z,19.11
2018-07-14T05:01:30.838Z,19.19
2018-07-14T05:02:31.400Z,19.19
2018-07-14T05:03:31.964Z,19.09
2018-07-14T05:04:32.530Z,18.96
2018-07-14T05:05:33.087Z,18.80
2018-07-14T05:06:33.725Z,18.78
2018-07-14T05:07:34.209Z,18.68
2018-07-14T05:08:34.771Z,18.69
2018-07-14T05:09:35.338Z,18.63
2018-07-14T05:10:35.897Z,18.60
2018-07-14T05:11:36.460Z,18.81
2018-07-14T05:12:37.017Z,19.07
2018-07-14T05:13:37.588Z,19.48
2018-07-14T05:14:38.149Z,19.74
2018-07-14T05:15:38.716Z,20.02
2018-07-14T05:16:39.275Z,20.31
2018-07-14T05:17:39.840Z,20.40
2018-07-14T05:18:40.409Z,20.40
2018-07-14T05:19:40.972Z,20.70
2018-07-14T05:20:41.543Z,20.70
2018-07-14T05:21:42.110Z,20.82
2018-07-14T05:22:42.676Z,20.84
2018-07-14T05:23:43.241Z,21.05
2018-07-14T05:24:43.812Z,21.07
2018-07-14T05:25:44.382Z,21.18
2018-07-14T05:26:44.946Z,21.37
2018-07-14T05:27:45.567Z,21.47
2018-07-14T05:28:46.078Z,21.51
2018-07-14T05:29:46.646Z,21.33
2018-07-14T05:30:47.215Z,21.33
2018-07-14T05:31:47.784Z,21.30
2018-07-14T05:32:48.349Z,21.37
2018-07-14T05:33:48.913Z,21.80
2018-07-14T05:34:49.528Z,21.98
2018-07-14T05:35:50.097Z,22.24
2018-07-14T05:36:50.622Z,22.51
2018-07-14T05:37:51.190Z,22.68
2018-07-14T05:38:51.753Z,22.83
2018-07-14T05:39:52.327Z,22.90
2018-07-14T05:40:52.892Z,22.90
2018-07-14T05:41:53.475Z,22.97
2018-07-14T05:42:54.033Z,22.81
2018-07-14T05:43:54.623Z,22.72
2018-07-14T05:44:55.174Z,22.65
2018-07-14T05:45:55.745Z,22.70
2018-07-14T05:46:56.317Z,22.83
2018-07-14T05:47:56.885Z,23.03
2018-07-14T05:48:57.454Z,22.94
2018-07-14T05:49:58.026Z,23.15
2018-07-14T05:50:58.598Z,23.32
2018-07-14T05:51:59.195Z,23.46
2018-07-14T05:52:59.748Z,23.53
2018-07-14T05:54:00.322Z,23.56
2018-07-14T05:55:00.885Z,23.59
2018-07-14T05:56:01.456Z,23.84
2018-07-14T05:57:02.032Z,24.16
2018-07-14T05:58:02.603Z,24.41
2018-07-14T05:59:03.175Z,24.48
2018-07-14T06:00:03.750Z,24.53
2018-07-14T06:01:04.310Z,24.58
2018-07-14T06:02:04.907Z,24.54
2018-07-14T06:03:05.464Z,24.83
2018-07-14T06:04:06.042Z,24.69
2018-07-14T06:05:06.623Z,24.81
2018-07-14T06:06:07.197Z,24.95
2018-07-14T06:07:07.763Z,24.96
2018-07-14T06:08:08.339Z,24.96
2018-07-14T06:09:08.913Z,25.21
2018-07-14T06:10:09.490Z,25.35
2018-07-14T06:11:10.061Z,25.63
2018-07-14T06:12:10.632Z,25.94
2018-07-14T06:13:11.208Z,26.22
2018-07-14T06:14:11.833Z,26.65
2018-07-14T06:15:12.382Z,26.99
2018-07-14T06:16:12.944Z,27.10
2018-07-14T06:17:13.575Z,27.30
2018-07-14T06:18:14.101Z,27.58
2018-07-14T06:19:14.673Z,27.33
2018-07-14T06:20:15.260Z,27.06
2018-07-14T06:21:15.831Z,27.06
2018-07-14T06:22:16.406Z,27.05
2018-07-14T06:23:16.972Z,27.32
2018-07-14T06:24:17.544Z,27.33
2018-07-14T06:25:18.121Z,27.63
2018-07-14T06:26:18.717Z,27.77
2018-07-14T06:27:19.279Z,28.10
2018-07-14T06:28:19.845Z,28.33
2018-07-14T06:29:20.423Z,28.38
2018-07-14T06:30:20.997Z,28.55
2018-07-14T06:31:21.569Z,28.91
2018-07-14T06:32:22.150Z,28.97
2018-07-14T06:33:22.712Z,29.04
2018-07-14T06:34:23.288Z,28.78
2018-07-14T06:35:23.862Z,28.41
2018-07-14T06:36:24.439Z,28.65
2018-07-14T06:37:25.019Z,28.81
2018-07-14T06:38:25.716Z,28.82
2018-07-14T06:39:26.163Z,28.70
2018-07-14T06:40:26.738Z,28.85
2018-07-14T06:41:27.315Z,29.20
2018-07-14T06:42:27.889Z,29.42
2018-07-14T06:43:28.454Z,29.39
2018-07-14T06:44:29.072Z,29.47
2018-07-14T06:45:29.617Z,29.44
2018-07-14T06:46:30.192Z,29.42
2018-07-14T06:47:30.767Z,29.52
2018-07-14T06:48:31.343Z,29.23
2018-07-14T06:49:31.919Z,29.23
2018-07-14T06:50:32.495Z,29.35
2018-07-14T06:51:33.066Z,29.62
2018-07-14T06:52:33.638Z,29.64
2018-07-14T06:53:34.215Z,29.99
2018-07-14T06:54:34.796Z,29.96
2018-07-14T06:55:35.369Z,30.03
2018-07-14T06:56:35.949Z,30.37
2018-07-14T06:57:36.520Z,30.33
2018-07-14T06:58:37.102Z,30.22
2018-07-14T06:59:37.675Z,30.31
2018-07-14T07:00:38.247Z,30.11
2018-07-14T07:01:38.824Z,30.08
2018-07-14T07:02:39.407Z,30.06
2018-07-14T07:03:39.982Z,30.03
2018-07-14T07:04:40.561Z,29.91
2018-07-14T07:05:41.134Z,30.00
2018-07-14T07:06:41.712Z,29.79
2018-07-14T07:07:42.291Z,29.74
2018-07-14T07:08:42.871Z,29.56
2018-07-14T07:09:43.437Z,29.53
2018-07-14T07:10:44.015Z,29.64
2018-07-14T07:11:44.586Z,29.85
2018-07-14T07:12:45.172Z,29.87
2018-07-14T07:13:45.788Z,29.75
2018-07-14T07:14:46.323Z,29.59
2018-07-14T07:15:46.896Z,29.32
2018-07-14T07:16:47.476Z,29.20
2018-07-14T07:17:48.054Z,29.66
2018-07-14T07:18:48.636Z,29.94
2018-07-14T07:19:49.214Z,30.09
2018-07-14T07:20:49.789Z,30.05
2018-07-14T07:21:50.369Z,30.18
2018-07-14T07:22:50.942Z,30.43
2018-07-14T07:23:51.512Z,30.16
2018-07-14T07:24:52.092Z,29.78
2018-07-14T07:25:52.670Z,29.54
2018-07-14T07:26:53.246Z,29.79
2018-07-14T07:27:53.835Z,29.79
2018-07-14T07:28:54.557Z,29.97
2018-07-14T07:29:54.978Z,29.87
2018-07-14T07:30:55.550Z,29.90
2018-07-14T07:31:56.119Z,29.91
2018-07-14T07:32:56.699Z,30.16
2018-07-14T07:33:57.282Z,30.65
2018-07-14T07:34:57.876Z,30.54
2018-07-14T07:35:58.431Z,30.15
2018-07-14T07:36:59.014Z,30.16
2018-07-14T07:37:59.587Z,30.34
2018-07-14T07:39:00.168Z,30.40
2018-07-14T07:40:00.742Z,30.53
2018-07-14T07:41:01.321Z,30.60
2018-07-14T07:42:01.893Z,30.68
2018-07-14T07:43:02.477Z,30.64
2018-07-14T07:44:03.050Z,30.57
2018-07-14T07:45:03.630Z,30.64
2018-07-14T07:46:04.202Z,30.64
2018-07-14T07:47:04.777Z,30.50
2018-07-14T07:48:05.353Z,30.84
2018-07-14T07:49:05.938Z,30.84
2018-07-14T07:50:06.515Z,30.78
2018-07-14T07:51:07.091Z,30.91
2018-07-14T07:52:07.671Z,30.91
2018-07-14T07:53:08.241Z,31.02
2018-07-14T07:54:08.814Z,30.97
2018-07-14T07:55:09.396Z,30.81
2018-07-14T07:56:09.971Z,30.72
2018-07-14T07:57:10.544Z,30.72
2018-07-14T07:58:11.126Z,30.54
2018-07-14T07:59:11.702Z,30.65
2018-07-14T08:00:12.280Z,30.84
2018-07-14T08:01:12.856Z,31.13
2018-07-14T08:02:13.433Z,31.28
2018-07-14T08:03:14.006Z,31.52
2018-07-14T08:04:14.581Z,31.71
2018-07-14T08:05:15.166Z,32.05
2018-07-14T08:06:15.737Z,32.00
2018-07-14T08:07:16.315Z,31.55
2018-07-14T08:08:16.896Z,31.39
2018-07-14T08:09:17.471Z,30.90
2018-07-14T08:10:18.081Z,30.75
2018-07-14T08:11:18.625Z,31.08
2018-07-14T08:12:19.196Z,31.43
2018-07-14T08:13:19.773Z,31.64
2018-07-14T08:14:20.350Z,31.88
2018-07-14T08:15:20.923Z,32.07
2018-07-14T08:16:21.498Z,32.17
2018-07-14T08:17:22.068Z,32.21
2018-07-14T08:18:22.643Z,32.29
2018-07-14T08:19:23.222Z,32.47
2018-07-14T08:20:23.802Z,32.44
2018-07-14T08:21:24.378Z,32.36
2018-07-14T08:22:24.960Z,32.48
2018-07-14T08:23:25.546Z,32.48
2018-07-14T08:24:26.123Z,32.69
2018-07-14T08:25:26.697Z,33.05
2018-07-14T08:26:27.276Z,33.11
2018-07-14T08:27:27.852Z,33.03
2018-07-14T08:28:28.424Z,33.26
2018-07-14T08:29:28.993Z,33.20
2018-07-14T08:30:29.562Z,32.95
2018-07-14T08:31:30.141Z,32.91
2018-07-14T08:32:30.777Z,32.88
2018-07-14T08:33:31.288Z,32.74
2018-07-14T08:34:31.861Z,32.67
2018-07-14T08:35:32.429Z,32.52
2018-07-14T08:36:33.010Z,32.58
2018-07-14T08:37:33.592Z,32.86
2018-07-14T08:38:34.169Z,32.96
2018-07-14T08:39:34.753Z,33.13
2018-07-14T08:40:35.329Z,32.76
2018-07-14T08:41:35.917Z,32.36
2018-07-14T08:42:36.480Z,32.34
2018-07-14T08:43:37.113Z,32.32
2018-07-14T08:44:37.634Z,32.10
2018-07-14T08:45:38.211Z,32.18
2018-07-14T08:46:38.791Z,32.25
2018-07-14T08:47:39.362Z,32.07
2018-07-14T08:48:39.941Z,31.96
2018-07-14T08:49:40.520Z,32.05
2018-07-14T08:50:41.094Z,31.95
2018-07-14T08:51:41.672Z,32.06
2018-07-14T08:52:42.249Z,32.07
2018-07-14T08:53:42.820Z,32.17
2018-07-14T08:54:43.396Z,31.96
2018-07-14T08:55:43.979Z,31.99
2018-07-14T08:56:44.584Z,32.02
2018-07-14T08:57:45.183Z,32.18
2018-07-14T08:58:45.746Z,32.63
2018-07-14T08:59:46.324Z,32.88
2018-07-14T09:00:46.899Z,32.69
2018-07-14T09:01:47.476Z,32.67
2018-07-14T09:02:48.057Z,32.39
2018-07-14T09:03:48.637Z,32.21
2018-07-14T09:04:49.213Z,32.51
2018-07-14T09:05:49.790Z,32.81
2018-07-14T09:06:50.364Z,33.17
2018-07-14T09:07:50.943Z,33.20
2018-07-14T09:08:51.513Z,33.07
2018-07-14T09:09:52.093Z,33.26
2018-07-14T09:10:52.668Z,32.99
2018-07-14T09:11:53.247Z,32.61
2018-07-14T09:12:53.831Z,32.17
2018-07-14T09:13:54.479Z,32.29
2018-07-14T09:14:55.024Z,32.32
2018-07-14T09:15:55.599Z,32.44
2018-07-14T09:16:56.179Z,32.52
2018-07-14T09:17:56.759Z,32.33
2018-07-14T09:18:57.340Z,32.43
2018-07-14T09:19:57.921Z,32.52
2018-07-14T09:20:58.496Z,32.86
2018-07-14T09:21:59.078Z,33.22
2018-07-14T09:22:59.659Z,33.31
2018-07-14T09:24:00.249Z,33.38
2018-07-14T09:25:00.829Z,33.30
2018-07-14T09:26:01.468Z,33.45
2018-07-14T09:27:01.990Z,33.48
2018-07-14T09:28:02.564Z,33.31
2018-07-14T09:29:03.141Z,33.33
2018-07-14T09:30:03.710Z,33.18
2018-07-14T09:31:04.307Z,33.36
2018-07-14T09:32:04.889Z,33.56
2018-07-14T09:33:05.458Z,33.79
2018-07-14T09:34:06.030Z,34.01
2018-07-14T09:35:06.602Z,33.95
2018-07-14T09:36:07.168Z,33.98
2018-07-14T09:37:07.806Z,33.79
2018-07-14T09:38:08.391Z,33.85
2018-07-14T09:39:08.973Z,33.43
2018-07-14T09:40:09.534Z,33.30
2018-07-14T09:41:10.113Z,33.45
2018-07-14T09:42:10.696Z,33.65
2018-07-14T09:43:11.265Z,33.45
2018-07-14T09:44:11.830Z,33.55
2018-07-14T09:45:12.421Z,33.83
2018-07-14T09:46:12.996Z,33.97
2018-07-14T09:47:13.577Z,33.97
2018-07-14T09:48:14.159Z,34.13
2018-07-14T09:49:14.739Z,34.01
2018-07-14T09:50:15.320Z,33.67
2018-07-14T09:51:15.908Z,33.60
2018-07-14T09:52:16.480Z,33.46
2018-07-14T09:53:17.067Z,33.60
2018-07-14T09:54:17.641Z,33.58
2018-07-14T09:55:18.306Z,33.36
2018-07-14T09:56:18.803Z,33.03
2018-07-14T09:57:19.384Z,32.83
2018-07-14T09:58:19.975Z,32.93
2018-07-14T09:59:20.533Z,33.23
2018-07-14T10:00:21.101Z,33.34
2018-07-14T10:01:21.678Z,33.15
2018-07-14T10:02:22.255Z,33.34
2018-07-14T10:03:22.895Z,33.13
2018-07-14T10:04:23.404Z,33.30
2018-07-14T10:05:23.988Z,33.43
2018-07-14T10:06:24.575Z,33.55
2018-07-14T10:07:25.178Z,33.50
2018-07-14T10:08:25.753Z,33.52
2018-07-14T10:09:27.314Z,33.34
2018-07-14T10:10:27.906Z,33.00
2018-07-14T10:11:28.492Z,32.92
2018-07-14T10:13:44.533Z,33.13
2018-07-14T10:14:45.120Z,33.18
2018-07-14T10:15:45.674Z,33.31
2018-07-14T10:16:46.251Z,33.11
2018-07-14T10:17:46.860Z,33.05
2018-07-14T10:18:47.405Z,33.22
2018-07-14T10:19:47.983Z,33.31
2018-07-14T10:20:48.561Z,33.10
2018-07-14T10:21:49.175Z,33.23
2018-07-14T10:22:49.739Z,33.33
2018-07-14T10:23:50.311Z,33.37
2018-07-14T10:24:50.885Z,33.28
2018-07-14T10:25:51.701Z,33.45
2018-07-14T10:26:52.043Z,33.48
2018-07-14T10:27:52.666Z,33.65
2018-07-14T10:28:53.231Z,33.74
2018-07-14T10:29:53.803Z,33.45
2018-07-14T10:30:54.431Z,33.55
2018-07-14T10:31:55.028Z,33.79
2018-07-14T10:32:55.594Z,33.90
2018-07-14T10:33:56.223Z,33.98
2018-07-14T10:34:56.746Z,33.98
2018-07-14T10:35:57.368Z,33.99
2018-07-14T10:36:57.947Z,34.09
2018-07-14T10:37:58.529Z,34.11
2018-07-14T10:38:59.115Z,33.83
2018-07-14T10:39:59.694Z,33.45
2018-07-14T10:41:00.268Z,33.26
2018-07-14T10:42:00.921Z,33.33
2018-07-14T10:43:01.434Z,33.48
2018-07-14T10:44:02.000Z,33.65
2018-07-14T10:45:02.585Z,33.53
2018-07-14T10:46:03.161Z,33.48
2018-07-14T10:47:03.736Z,33.77
2018-07-14T10:48:04.311Z,33.77
2018-07-14T10:49:04.902Z,34.01
2018-07-14T10:50:05.487Z,34.23
2018-07-14T10:51:06.063Z,34.53
2018-07-14T10:52:06.641Z,34.76
2018-07-14T10:53:07.211Z,34.79
2018-07-14T10:54:07.791Z,34.92
2018-07-14T10:55:08.402Z,34.92
2018-07-14T10:56:08.977Z,34.79
2018-07-14T10:57:09.547Z,34.71
2018-07-14T10:58:10.193Z,34.67
2018-07-14T10:59:10.690Z,34.56
2018-07-14T11:00:11.277Z,34.74
2018-07-14T11:01:11.878Z,34.91
2018-07-14T11:02:12.442Z,34.77
2018-07-14T11:03:13.044Z,34.80
2018-07-14T11:04:13.598Z,34.91
2018-07-14T11:05:14.169Z,34.84
2018-07-14T11:06:14.757Z,34.91
2018-07-14T11:07:15.356Z,34.96
2018-07-14T11:08:15.933Z,35.03
2018-07-14T11:09:16.529Z,35.03
2018-07-14T11:10:17.106Z,34.93
2018-07-14T11:11:17.688Z,35.01
2018-07-14T11:12:18.268Z,34.95
2018-07-14T11:13:18.844Z,34.89
2018-07-14T11:14:19.419Z,34.91
2018-07-14T11:15:20.002Z,34.77
2018-07-14T11:16:20.578Z,34.86
2018-07-14T11:17:21.174Z,34.76
2018-07-14T11:18:21.754Z,34.98
2018-07-14T11:19:22.335Z,35.33
2018-07-14T11:20:22.983Z,35.71
2018-07-14T11:21:23.527Z,35.57
2018-07-14T11:22:24.105Z,35.42
2018-07-14T11:23:24.916Z,35.35
2018-07-14T11:24:25.493Z,35.30
2018-07-14T11:25:26.080Z,35.48
2018-07-14T11:26:26.650Z,35.51
2018-07-14T11:27:27.219Z,35.37
2018-07-14T11:28:27.789Z,34.96
2018-07-14T11:29:28.395Z,34.74
2018-07-14T11:30:28.997Z,34.80
2018-07-14T11:31:29.646Z,34.89
2018-07-14T11:32:30.220Z,34.89
2018-07-14T11:33:30.797Z,34.77
2018-07-14T11:34:31.399Z,35.11
2018-07-14T11:35:32.010Z,35.54
2018-07-14T11:36:32.575Z,35.98
2018-07-14T11:37:33.178Z,36.12
2018-07-14T11:38:33.734Z,36.12
2018-07-14T11:39:34.307Z,36.12
2018-07-14T11:40:34.884Z,36.03
2018-07-14T11:41:35.493Z,35.93
2018-07-14T11:42:36.084Z,36.03
2018-07-14T11:43:36.664Z,36.04
2018-07-14T11:44:37.240Z,36.14
2018-07-14T11:45:37.813Z,36.12
2018-07-14T11:46:38.390Z,36.08
2018-07-14T11:47:39.124Z,36.29
2018-07-14T11:48:39.729Z,36.23
2018-07-14T11:49:40.346Z,36.48
2018-07-14T11:50:40.926Z,36.67
2018-07-14T11:51:41.507Z,36.73
2018-07-14T11:52:42.088Z,36.89
2018-07-14T11:53:42.666Z,36.70
2018-07-14T11:54:43.256Z,36.54
2018-07-14T11:55:43.839Z,36.63
2018-07-14T11:56:44.437Z,36.73
2018-07-14T11:57:45.012Z,36.91
2018-07-14T11:58:45.600Z,37.13
2018-07-14T11:59:46.186Z,37.19
2018-07-14T12:00:46.786Z,37.32
2018-07-14T12:02:31.521Z,37.36
2018-07-14T12:03:32.129Z,37.20
2018-07-14T12:04:32.737Z,36.54
2018-07-14T12:05:33.381Z,35.88
2018-07-14T12:06:33.979Z,35.77
2018-07-14T12:07:34.550Z,35.92
2018-07-14T12:08:35.156Z,35.95
2018-07-14T12:09:35.764Z,36.07
2018-07-14T12:10:36.350Z,36.41
2018-07-14T12:11:36.930Z,36.54
2018-07-14T12:12:37.508Z,36.60
2018-07-14T12:13:38.089Z,36.63
2018-07-14T12:14:38.662Z,36.64
2018-07-14T12:15:39.249Z,36.64
2018-07-14T12:16:39.822Z,36.45
2018-07-14T12:17:40.406Z,35.98
2018-07-14T12:18:40.985Z,35.76
2018-07-14T12:19:41.559Z,35.48
2018-07-14T12:20:42.140Z,35.17
2018-07-14T12:21:42.718Z,34.93
2018-07-14T12:22:43.293Z,34.93
2018-07-14T12:23:43.868Z,34.91
2018-07-14T12:24:44.448Z,34.96
2018-07-14T12:25:45.025Z,34.73
2018-07-14T12:26:45.677Z,34.48
2018-07-14T12:27:46.166Z,34.58
2018-07-14T12:28:46.764Z,35.17
2018-07-14T12:29:47.318Z,34.98
2018-07-14T12:30:47.889Z,35.08
2018-07-14T12:31:48.467Z,35.26
2018-07-14T12:32:49.046Z,35.44
2018-07-14T12:33:49.629Z,35.81
2018-07-14T12:34:50.204Z,36.06
2018-07-14T12:35:50.784Z,35.81
2018-07-14T12:36:51.361Z,35.86
2018-07-14T12:37:51.943Z,36.19
2018-07-14T12:38:52.512Z,36.26
2018-07-14T12:39:53.084Z,36.65
2018-07-14T12:40:53.664Z,36.87
2018-07-14T12:41:54.231Z,37.13
2018-07-14T12:42:54.811Z,37.50
2018-07-14T12:43:55.386Z,37.73
2018-07-14T12:44:55.963Z,38.05
2018-07-14T12:45:56.538Z,36.68
2018-07-14T12:46:57.114Z,35.67
2018-07-14T12:47:57.693Z,35.29
2018-07-14T12:48:58.267Z,34.95
2018-07-14T12:49:58.839Z,34.77
2018-07-14T12:50:59.408Z,34.60
2018-07-14T12:51:59.983Z,34.32
2018-07-14T12:53:00.561Z,34.02
2018-07-14T12:54:01.139Z,34.20
2018-07-14T12:55:01.708Z,34.53
2018-07-14T12:56:02.288Z,34.73
2018-07-14T12:57:02.862Z,34.89
2018-07-14T12:58:03.432Z,35.26
2018-07-14T12:59:04.007Z,35.64
2018-07-14T13:00:04.606Z,36.04
2018-07-14T13:01:05.163Z,36.15
2018-07-14T13:02:05.743Z,36.57